sensor_id;sensor_type;location;lat;lon;timestamp;temperature;humidity
7388;DHT22;3735;50.136;11.062;2022-09-17T00:00:47;8.10;99.90
7388;DHT22;3735;50.136;11.062;2022-09-17T00:03:14;8.10;99.90
7388;DHT22;3735;50.136;11.062;2022-09-17T00:05:41;8.00;99.90
7388;DHT22;3735;50.136;11.062;2022-09-17T00:08:10;7.90;99.90
7388;DHT22;3735;50.136;11.062;2022-09-17T00:10:41;7.90;99.90
7388;DHT22;3735;50.136;11.062;2022-09-17T00:13:09;7.90;99.90
7388;DHT22;3735;50.136;11.062;2022-09-17T00:15:40;8.00;99.90
7388;DHT22;3735;50.136;11.062;2022-09-17T00:18:07;7.90;99.90
7388;DHT22;3735;50.136;11.062;2022-09-17T00:20:44;7.90;99.90
7388;DHT22;3735;50.136;11.062;2022-09-17T00:23:12;7.90;99.90
7388;DHT22;3735;50.136;11.062;2022-09-17T00:25:40;7.80;99.90
7388;DHT22;3735;50.136;11.062;2022-09-17T00:28:08;7.80;99.90
7388;DHT22;3735;50.136;11.062;2022-09-17T00:30:34;7.90;99.90
7388;DHT22;3735;50.136;11.062;2022-09-17T00:33:10;7.80;99.90
7388;DHT22;3735;50.136;11.062;2022-09-17T00:35:41;7.80;99.90
7388;DHT22;3735;50.136;11.062;2022-09-17T00:38:07;7.80;99.90
7388;DHT22;3735;50.136;11.062;2022-09-17T00:40:34;7.80;99.90
7388;DHT22;3735;50.136;11.062;2022-09-17T00:42:59;7.90;99.90
7388;DHT22;3735;50.136;11.062;2022-09-17T00:45:27;7.90;99.90
7388;DHT22;3735;50.136;11.062;2022-09-17T00:47:56;7.90;99.90
7388;DHT22;3735;50.136;11.062;2022-09-17T00:50:29;7.80;99.90
7388;DHT22;3735;50.136;11.062;2022-09-17T00:53:20;7.80;99.90
7388;DHT22;3735;50.136;11.062;2022-09-17T00:55:58;7.90;99.90
7388;DHT22;3735;50.136;11.062;2022-09-17T00:58:30;7.90;99.90
7388;DHT22;3735;50.136;11.062;2022-09-17T01:00:58;7.90;99.90
7388;DHT22;3735;50.136;11.062;2022-09-17T01:03:24;7.90;99.90
7388;DHT22;3735;50.136;11.062;2022-09-17T01:20:39;8.50;99.90
7388;DHT22;3735;50.136;11.062;2022-09-17T01:23:31;8.50;99.90
7388;DHT22;3735;50.136;11.062;2022-09-17T01:32:41;8.50;99.90
7388;DHT22;3735;50.136;11.062;2022-09-17T01:41:00;8.60;99.90
7388;DHT22;3735;50.136;11.062;2022-09-17T01:46:21;8.60;99.90
7388;DHT22;3735;50.136;11.062;2022-09-17T01:49:04;8.60;99.90
7388;DHT22;3735;50.136;11.062;2022-09-17T01:51:42;8.60;99.90
7388;DHT22;3735;50.136;11.062;2022-09-17T01:54:25;8.60;99.90
7388;DHT22;3735;50.136;11.062;2022-09-17T01:57:03;8.60;99.90
7388;DHT22;3735;50.136;11.062;2022-09-17T01:59:37;8.70;99.90
7388;DHT22;3735;50.136;11.062;2022-09-17T02:02:20;8.70;99.90
7388;DHT22;3735;50.136;11.062;2022-09-17T02:04:59;8.70;99.90
7388;DHT22;3735;50.136;11.062;2022-09-17T02:07:39;8.70;99.90
7388;DHT22;3735;50.136;11.062;2022-09-17T02:10:17;8.70;99.90
7388;DHT22;3735;50.136;11.062;2022-09-17T02:12:52;8.70;99.90
7388;DHT22;3735;50.136;11.062;2022-09-17T02:15:24;8.70;99.90
7388;DHT22;3735;50.136;11.062;2022-09-17T02:21:19;8.70;99.90
7388;DHT22;3735;50.136;11.062;2022-09-17T02:30:10;8.80;99.90
7388;DHT22;3735;50.136;11.062;2022-09-17T02:32:37;8.70;99.90
7388;DHT22;3735;50.136;11.062;2022-09-17T02:35:03;8.70;99.90
7388;DHT22;3735;50.136;11.062;2022-09-17T02:37:30;8.80;99.90
7388;DHT22;3735;50.136;11.062;2022-09-17T02:39:56;8.80;99.90
7388;DHT22;3735;50.136;11.062;2022-09-17T02:42:30;8.80;99.90
7388;DHT22;3735;50.136;11.062;2022-09-17T02:45:48;8.80;99.90
7388;DHT22;3735;50.136;11.062;2022-09-17T02:55:03;8.80;99.90
7388;DHT22;3735;50.136;11.062;2022-09-17T02:57:39;8.80;99.90
7388;DHT22;3735;50.136;11.062;2022-09-17T03:05:08;8.90;99.90
7388;DHT22;3735;50.136;11.062;2022-09-17T03:07:36;8.80;99.90
7388;DHT22;3735;50.136;11.062;2022-09-17T03:10:02;8.90;99.90
7388;DHT22;3735;50.136;11.062;2022-09-17T03:12:29;8.90;99.90
7388;DHT22;3735;50.136;11.062;2022-09-17T03:14:54;8.90;99.90
7388;DHT22;3735;50.136;11.062;2022-09-17T03:17:20;8.90;99.90
7388;DHT22;3735;50.136;11.062;2022-09-17T03:19:46;8.90;99.90
7388;DHT22;3735;50.136;11.062;2022-09-17T03:22:12;8.90;99.90
7388;DHT22;3735;50.136;11.062;2022-09-17T03:24:38;8.90;99.90
7388;DHT22;3735;50.136;11.062;2022-09-17T03:27:04;8.90;99.90
7388;DHT22;3735;50.136;11.062;2022-09-17T03:29:29;8.90;99.90
7388;DHT22;3735;50.136;11.062;2022-09-17T03:31:55;8.90;99.90
7388;DHT22;3735;50.136;11.062;2022-09-17T03:34:21;8.90;99.90
7388;DHT22;3735;50.136;11.062;2022-09-17T03:36:48;8.90;99.90
7388;DHT22;3735;50.136;11.062;2022-09-17T03:39:14;8.90;99.90
7388;DHT22;3735;50.136;11.062;2022-09-17T03:41:40;8.90;99.90
7388;DHT22;3735;50.136;11.062;2022-09-17T03:44:05;8.90;99.90
7388;DHT22;3735;50.136;11.062;2022-09-17T03:46:31;8.80;99.90
7388;DHT22;3735;50.136;11.062;2022-09-17T03:48:57;8.80;99.90
7388;DHT22;3735;50.136;11.062;2022-09-17T03:51:23;8.80;99.90
7388;DHT22;3735;50.136;11.062;2022-09-17T03:53:49;8.70;99.90
7388;DHT22;3735;50.136;11.062;2022-09-17T03:56:14;8.70;99.90
7388;DHT22;3735;50.136;11.062;2022-09-17T03:58:40;8.60;99.90
7388;DHT22;3735;50.136;11.062;2022-09-17T04:01:06;8.60;99.90
7388;DHT22;3735;50.136;11.062;2022-09-17T04:03:32;8.60;99.90
7388;DHT22;3735;50.136;11.062;2022-09-17T04:05:58;8.60;99.90
7388;DHT22;3735;50.136;11.062;2022-09-17T04:08:24;8.50;99.90
7388;DHT22;3735;50.136;11.062;2022-09-17T04:10:50;8.50;99.90
7388;DHT22;3735;50.136;11.062;2022-09-17T04:13:16;8.50;99.90
7388;DHT22;3735;50.136;11.062;2022-09-17T04:15:44;8.50;99.90
7388;DHT22;3735;50.136;11.062;2022-09-17T04:18:10;8.50;99.90
7388;DHT22;3735;50.136;11.062;2022-09-17T04:20:36;8.40;99.90
7388;DHT22;3735;50.136;11.062;2022-09-17T04:23:03;8.40;99.90
7388;DHT22;3735;50.136;11.062;2022-09-17T04:25:31;8.40;99.90
7388;DHT22;3735;50.136;11.062;2022-09-17T04:27:57;8.40;99.90
7388;DHT22;3735;50.136;11.062;2022-09-17T04:30:23;8.40;99.90
7388;DHT22;3735;50.136;11.062;2022-09-17T04:32:49;8.40;99.90
7388;DHT22;3735;50.136;11.062;2022-09-17T04:35:15;8.40;99.90
7388;DHT22;3735;50.136;11.062;2022-09-17T04:37:41;8.40;99.90
7388;DHT22;3735;50.136;11.062;2022-09-17T04:40:07;8.40;99.90
7388;DHT22;3735;50.136;11.062;2022-09-17T04:42:33;8.40;99.90
7388;DHT22;3735;50.136;11.062;2022-09-17T04:44:59;8.40;99.90
7388;DHT22;3735;50.136;11.062;2022-09-17T04:47:25;8.40;99.90
7388;DHT22;3735;50.136;11.062;2022-09-17T04:49:51;8.40;99.90
7388;DHT22;3735;50.136;11.062;2022-09-17T04:52:17;8.40;99.90
7388;DHT22;3735;50.136;11.062;2022-09-17T04:54:42;8.40;99.90
7388;DHT22;3735;50.136;11.062;2022-09-17T04:57:08;8.40;99.90
7388;DHT22;3735;50.136;11.062;2022-09-17T04:59:34;8.40;99.90
7388;DHT22;3735;50.136;11.062;2022-09-17T05:02:00;8.40;99.90
7388;DHT22;3735;50.136;11.062;2022-09-17T05:04:25;8.40;99.90
7388;DHT22;3735;50.136;11.062;2022-09-17T05:06:51;8.40;99.90
7388;DHT22;3735;50.136;11.062;2022-09-17T05:09:17;8.40;99.90
7388;DHT22;3735;50.136;11.062;2022-09-17T05:11:42;8.40;99.90
7388;DHT22;3735;50.136;11.062;2022-09-17T05:14:08;8.40;99.90
7388;DHT22;3735;50.136;11.062;2022-09-17T05:16:34;8.40;99.90
7388;DHT22;3735;50.136;11.062;2022-09-17T05:18:59;8.40;99.90
7388;DHT22;3735;50.136;11.062;2022-09-17T05:21:25;8.40;99.90
7388;DHT22;3735;50.136;11.062;2022-09-17T05:23:51;8.40;99.90
7388;DHT22;3735;50.136;11.062;2022-09-17T05:26:17;8.40;99.90
7388;DHT22;3735;50.136;11.062;2022-09-17T05:28:42;8.30;99.90
7388;DHT22;3735;50.136;11.062;2022-09-17T05:31:08;8.30;99.90
7388;DHT22;3735;50.136;11.062;2022-09-17T05:33:34;8.30;99.90
7388;DHT22;3735;50.136;11.062;2022-09-17T05:36:00;8.30;99.90
7388;DHT22;3735;50.136;11.062;2022-09-17T05:38:26;8.30;99.90
7388;DHT22;3735;50.136;11.062;2022-09-17T05:40:52;8.30;99.90
7388;DHT22;3735;50.136;11.062;2022-09-17T05:43:18;8.30;99.90
7388;DHT22;3735;50.136;11.062;2022-09-17T05:45:43;8.30;99.90
7388;DHT22;3735;50.136;11.062;2022-09-17T05:48:13;8.40;99.90
7388;DHT22;3735;50.136;11.062;2022-09-17T05:50:40;8.40;99.90
7388;DHT22;3735;50.136;11.062;2022-09-17T05:53:15;8.40;99.90
7388;DHT22;3735;50.136;11.062;2022-09-17T05:55:41;8.50;99.90
7388;DHT22;3735;50.136;11.062;2022-09-17T05:58:16;8.50;99.90
7388;DHT22;3735;50.136;11.062;2022-09-17T06:00:45;8.50;99.90
7388;DHT22;3735;50.136;11.062;2022-09-17T06:03:12;8.50;99.90
7388;DHT22;3735;50.136;11.062;2022-09-17T06:05:40;8.50;99.90
7388;DHT22;3735;50.136;11.062;2022-09-17T06:08:07;8.60;99.90
7388;DHT22;3735;50.136;11.062;2022-09-17T06:10:37;8.60;99.90
7388;DHT22;3735;50.136;11.062;2022-09-17T06:13:03;8.60;99.90
7388;DHT22;3735;50.136;11.062;2022-09-17T06:15:29;8.70;99.90
7388;DHT22;3735;50.136;11.062;2022-09-17T06:17:55;8.60;99.90
7388;DHT22;3735;50.136;11.062;2022-09-17T06:20:21;8.70;99.90
7388;DHT22;3735;50.136;11.062;2022-09-17T06:22:47;8.70;99.90
7388;DHT22;3735;50.136;11.062;2022-09-17T06:25:13;8.70;99.90
7388;DHT22;3735;50.136;11.062;2022-09-17T06:27:39;8.80;99.90
7388;DHT22;3735;50.136;11.062;2022-09-17T06:30:05;8.80;99.90
7388;DHT22;3735;50.136;11.062;2022-09-17T06:32:32;8.80;99.90
7388;DHT22;3735;50.136;11.062;2022-09-17T06:34:58;8.90;99.90
7388;DHT22;3735;50.136;11.062;2022-09-17T06:37:28;8.90;99.90
7388;DHT22;3735;50.136;11.062;2022-09-17T06:39:55;9.00;99.90
7388;DHT22;3735;50.136;11.062;2022-09-17T06:42:21;9.00;99.90
7388;DHT22;3735;50.136;11.062;2022-09-17T06:44:47;9.10;99.90
7388;DHT22;3735;50.136;11.062;2022-09-17T06:47:13;9.20;99.90
7388;DHT22;3735;50.136;11.062;2022-09-17T06:49:39;9.20;99.90
7388;DHT22;3735;50.136;11.062;2022-09-17T06:52:05;9.30;99.90
7388;DHT22;3735;50.136;11.062;2022-09-17T06:54:30;9.30;99.90
7388;DHT22;3735;50.136;11.062;2022-09-17T06:56:56;9.40;99.90
7388;DHT22;3735;50.136;11.062;2022-09-17T06:59:22;9.40;99.90
7388;DHT22;3735;50.136;11.062;2022-09-17T07:01:49;9.40;99.90
7388;DHT22;3735;50.136;11.062;2022-09-17T07:04:15;9.50;99.90
7388;DHT22;3735;50.136;11.062;2022-09-17T07:06:43;9.60;99.90
7388;DHT22;3735;50.136;11.062;2022-09-17T07:09:10;9.60;99.90
7388;DHT22;3735;50.136;11.062;2022-09-17T07:11:37;9.60;99.90
7388;DHT22;3735;50.136;11.062;2022-09-17T07:14:03;9.70;99.90
7388;DHT22;3735;50.136;11.062;2022-09-17T07:16:30;9.70;99.90
7388;DHT22;3735;50.136;11.062;2022-09-17T07:19:01;9.80;99.90
7388;DHT22;3735;50.136;11.062;2022-09-17T07:21:28;9.90;99.90
7388;DHT22;3735;50.136;11.062;2022-09-17T07:23:53;10.00;99.90
7388;DHT22;3735;50.136;11.062;2022-09-17T07:26:19;10.10;99.90
7388;DHT22;3735;50.136;11.062;2022-09-17T07:28:45;10.10;99.90
7388;DHT22;3735;50.136;11.062;2022-09-17T07:31:11;10.10;99.90
7388;DHT22;3735;50.136;11.062;2022-09-17T07:33:38;10.10;99.90
7388;DHT22;3735;50.136;11.062;2022-09-17T07:36:07;10.10;99.90
7388;DHT22;3735;50.136;11.062;2022-09-17T07:38:35;10.20;99.90
7388;DHT22;3735;50.136;11.062;2022-09-17T07:41:06;10.20;99.90
7388;DHT22;3735;50.136;11.062;2022-09-17T07:43:37;10.30;99.90
7388;DHT22;3735;50.136;11.062;2022-09-17T07:46:05;10.30;99.90
7388;DHT22;3735;50.136;11.062;2022-09-17T07:48:33;10.40;99.90
7388;DHT22;3735;50.136;11.062;2022-09-17T07:50:59;10.50;99.90
7388;DHT22;3735;50.136;11.062;2022-09-17T07:53:25;10.60;99.90
7388;DHT22;3735;50.136;11.062;2022-09-17T07:55:56;10.70;99.90
7388;DHT22;3735;50.136;11.062;2022-09-17T07:58:28;10.80;99.90
7388;DHT22;3735;50.136;11.062;2022-09-17T08:01:04;10.80;99.90
7388;DHT22;3735;50.136;11.062;2022-09-17T08:03:31;10.90;99.90
7388;DHT22;3735;50.136;11.062;2022-09-17T08:06:05;11.00;99.90
7388;DHT22;3735;50.136;11.062;2022-09-17T08:08:32;11.00;99.90
7388;DHT22;3735;50.136;11.062;2022-09-17T08:11:12;11.00;99.90
7388;DHT22;3735;50.136;11.062;2022-09-17T08:13:50;11.20;99.90
7388;DHT22;3735;50.136;11.062;2022-09-17T08:16:17;11.30;99.90
7388;DHT22;3735;50.136;11.062;2022-09-17T08:18:44;11.50;99.90
7388;DHT22;3735;50.136;11.062;2022-09-17T08:21:12;11.70;99.90
7388;DHT22;3735;50.136;11.062;2022-09-17T08:23:42;12.00;99.90
7388;DHT22;3735;50.136;11.062;2022-09-17T08:26:20;12.30;99.90
7388;DHT22;3735;50.136;11.062;2022-09-17T08:28:49;12.40;99.90
7388;DHT22;3735;50.136;11.062;2022-09-17T08:31:19;12.60;99.90
7388;DHT22;3735;50.136;11.062;2022-09-17T08:33:46;12.70;99.90
7388;DHT22;3735;50.136;11.062;2022-09-17T08:36:14;12.90;99.90
7388;DHT22;3735;50.136;11.062;2022-09-17T08:38:42;13.00;99.90
7388;DHT22;3735;50.136;11.062;2022-09-17T08:46:59;12.40;99.90
7388;DHT22;3735;50.136;11.062;2022-09-17T08:49:40;12.10;99.90
7388;DHT22;3735;50.136;11.062;2022-09-17T09:05:00;12.50;99.90
7388;DHT22;3735;50.136;11.062;2022-09-17T09:07:30;12.70;99.90
7388;DHT22;3735;50.136;11.062;2022-09-17T09:12:32;13.00;99.90
7388;DHT22;3735;50.136;11.062;2022-09-17T09:15:14;13.00;99.90
7388;DHT22;3735;50.136;11.062;2022-09-17T09:17:49;13.10;99.90
7388;DHT22;3735;50.136;11.062;2022-09-17T09:20:21;13.20;99.90
7388;DHT22;3735;50.136;11.062;2022-09-17T09:23:12;13.50;99.90
7388;DHT22;3735;50.136;11.062;2022-09-17T09:25:52;14.10;99.90
7388;DHT22;3735;50.136;11.062;2022-09-17T09:34:12;16.20;99.90
7388;DHT22;3735;50.136;11.062;2022-09-17T09:36:39;18.30;99.90
7388;DHT22;3735;50.136;11.062;2022-09-17T09:39:21;20.10;99.90
7388;DHT22;3735;50.136;11.062;2022-09-17T09:41:58;22.00;99.90
7388;DHT22;3735;50.136;11.062;2022-09-17T09:44:31;23.50;99.90
7388;DHT22;3735;50.136;11.062;2022-09-17T09:52:47;22.40;99.90
7388;DHT22;3735;50.136;11.062;2022-09-17T09:58:11;21.20;99.90
7388;DHT22;3735;50.136;11.062;2022-09-17T10:00:47;20.60;99.90
7388;DHT22;3735;50.136;11.062;2022-09-17T10:03:21;21.00;99.90
7388;DHT22;3735;50.136;11.062;2022-09-17T10:05:57;19.70;99.90
7388;DHT22;3735;50.136;11.062;2022-09-17T10:08:24;18.10;99.90
7388;DHT22;3735;50.136;11.062;2022-09-17T10:13:41;17.80;99.90
7388;DHT22;3735;50.136;11.062;2022-09-17T10:19:10;16.60;99.90
7388;DHT22;3735;50.136;11.062;2022-09-17T10:21:40;16.00;99.90
7388;DHT22;3735;50.136;11.062;2022-09-17T10:24:23;15.60;99.90
7388;DHT22;3735;50.136;11.062;2022-09-17T10:26:56;16.00;99.90
7388;DHT22;3735;50.136;11.062;2022-09-17T10:29:27;16.80;99.90
7388;DHT22;3735;50.136;11.062;2022-09-17T10:31:54;17.20;99.90
7388;DHT22;3735;50.136;11.062;2022-09-17T10:34:24;16.70;99.90
7388;DHT22;3735;50.136;11.062;2022-09-17T10:36:52;16.50;99.90
7388;DHT22;3735;50.136;11.062;2022-09-17T10:42:04;18.60;99.90
7388;DHT22;3735;50.136;11.062;2022-09-17T10:44:35;19.80;99.90
7388;DHT22;3735;50.136;11.062;2022-09-17T10:47:10;19.60;99.90
7388;DHT22;3735;50.136;11.062;2022-09-17T10:49:58;19.50;99.90
7388;DHT22;3735;50.136;11.062;2022-09-17T10:52:48;18.90;99.90
7388;DHT22;3735;50.136;11.062;2022-09-17T10:55:38;17.60;99.90
7388;DHT22;3735;50.136;11.062;2022-09-17T10:58:39;16.80;99.90
7388;DHT22;3735;50.136;11.062;2022-09-17T11:01:35;16.60;99.90
7388;DHT22;3735;50.136;11.062;2022-09-17T11:35:47;21.80;99.90
7388;DHT22;3735;50.136;11.062;2022-09-17T11:38:44;19.80;99.90
7388;DHT22;3735;50.136;11.062;2022-09-17T11:41:34;17.60;99.90
7388;DHT22;3735;50.136;11.062;2022-09-17T11:44:19;17.00;99.90
7388;DHT22;3735;50.136;11.062;2022-09-17T11:52:19;20.60;99.90
7388;DHT22;3735;50.136;11.062;2022-09-17T11:55:03;20.30;99.90
7388;DHT22;3735;50.136;11.062;2022-09-17T11:57:40;19.00;99.90
7388;DHT22;3735;50.136;11.062;2022-09-17T12:00:18;17.30;99.90
7388;DHT22;3735;50.136;11.062;2022-09-17T12:02:57;15.50;99.90
7388;DHT22;3735;50.136;11.062;2022-09-17T12:05:55;14.10;99.90
7388;DHT22;3735;50.136;11.062;2022-09-17T12:08:32;12.90;99.90
7388;DHT22;3735;50.136;11.062;2022-09-17T12:11:16;12.30;99.90
7388;DHT22;3735;50.136;11.062;2022-09-17T12:13:50;11.80;99.90
7388;DHT22;3735;50.136;11.062;2022-09-17T12:16:28;11.40;99.90
7388;DHT22;3735;50.136;11.062;2022-09-17T12:19:22;11.10;99.90
7388;DHT22;3735;50.136;11.062;2022-09-17T12:22:03;11.80;99.90
7388;DHT22;3735;50.136;11.062;2022-09-17T12:24:34;12.80;99.90
7388;DHT22;3735;50.136;11.062;2022-09-17T12:41:19;23.00;99.90
7388;DHT22;3735;50.136;11.062;2022-09-17T13:18:22;20.30;99.90
7388;DHT22;3735;50.136;11.062;2022-09-17T13:21:12;20.30;99.90
7388;DHT22;3735;50.136;11.062;2022-09-17T13:23:44;20.70;99.90
7388;DHT22;3735;50.136;11.062;2022-09-17T13:26:15;21.60;99.90
7388;DHT22;3735;50.136;11.062;2022-09-17T13:28:45;21.90;99.90
7388;DHT22;3735;50.136;11.062;2022-09-17T13:31:22;21.20;99.90
7388;DHT22;3735;50.136;11.062;2022-09-17T13:36:51;18.50;99.90
7388;DHT22;3735;50.136;11.062;2022-09-17T13:39:41;17.40;99.90
7388;DHT22;3735;50.136;11.062;2022-09-17T13:42:22;16.50;99.90
7388;DHT22;3735;50.136;11.062;2022-09-17T13:45:13;15.90;99.90
7388;DHT22;3735;50.136;11.062;2022-09-17T13:47:51;14.90;99.90
7388;DHT22;3735;50.136;11.062;2022-09-17T13:53:16;12.60;99.90
7388;DHT22;3735;50.136;11.062;2022-09-17T13:55:51;14.30;99.90
7388;DHT22;3735;50.136;11.062;2022-09-17T14:06:44;20.40;99.90
7388;DHT22;3735;50.136;11.062;2022-09-17T14:18:33;24.60;99.90
7388;DHT22;3735;50.136;11.062;2022-09-17T14:21:04;24.30;99.90
7388;DHT22;3735;50.136;11.062;2022-09-17T14:23:32;24.60;99.90
7388;DHT22;3735;50.136;11.062;2022-09-17T14:26:01;24.40;99.90
7388;DHT22;3735;50.136;11.062;2022-09-17T14:29:01;24.80;99.90
7388;DHT22;3735;50.136;11.062;2022-09-17T14:31:37;24.10;99.90
7388;DHT22;3735;50.136;11.062;2022-09-17T14:34:04;23.10;99.90
7388;DHT22;3735;50.136;11.062;2022-09-17T14:36:36;21.90;99.90
7388;DHT22;3735;50.136;11.062;2022-09-17T14:39:08;20.40;99.90
7388;DHT22;3735;50.136;11.062;2022-09-17T14:41:39;20.60;99.90
7388;DHT22;3735;50.136;11.062;2022-09-17T14:44:19;21.70;99.90
7388;DHT22;3735;50.136;11.062;2022-09-17T14:47:05;21.30;99.90
7388;DHT22;3735;50.136;11.062;2022-09-17T14:49:37;21.50;99.90
7388;DHT22;3735;50.136;11.062;2022-09-17T14:55:30;22.20;99.90
7388;DHT22;3735;50.136;11.062;2022-09-17T14:57:57;22.20;99.90
7388;DHT22;3735;50.136;11.062;2022-09-17T15:00:36;22.30;99.90
7388;DHT22;3735;50.136;11.062;2022-09-17T15:03:03;22.30;99.90
7388;DHT22;3735;50.136;11.062;2022-09-17T15:05:34;21.90;99.90
7388;DHT22;3735;50.136;11.062;2022-09-17T15:08:24;21.70;99.90
7388;DHT22;3735;50.136;11.062;2022-09-17T15:11:01;21.10;99.90
7388;DHT22;3735;50.136;11.062;2022-09-17T15:13:30;20.90;99.90
7388;DHT22;3735;50.136;11.062;2022-09-17T15:18:53;20.40;99.90
7388;DHT22;3735;50.136;11.062;2022-09-17T15:21:39;20.40;99.90
7388;DHT22;3735;50.136;11.062;2022-09-17T15:24:22;20.60;99.90
7388;DHT22;3735;50.136;11.062;2022-09-17T15:27:05;19.80;99.90
7388;DHT22;3735;50.136;11.062;2022-09-17T15:29:42;18.80;99.90
7388;DHT22;3735;50.136;11.062;2022-09-17T15:32:13;19.20;99.90
7388;DHT22;3735;50.136;11.062;2022-09-17T15:34:40;19.00;99.90
7388;DHT22;3735;50.136;11.062;2022-09-17T15:39:50;17.80;99.90
7388;DHT22;3735;50.136;11.062;2022-09-17T15:42:28;17.20;99.90
7388;DHT22;3735;50.136;11.062;2022-09-17T15:47:59;15.80;99.90
7388;DHT22;3735;50.136;11.062;2022-09-17T15:50:33;15.10;99.90
7388;DHT22;3735;50.136;11.062;2022-09-17T15:55:35;14.30;99.90
7388;DHT22;3735;50.136;11.062;2022-09-17T16:00:47;13.50;99.90
7388;DHT22;3735;50.136;11.062;2022-09-17T16:08:45;12.50;99.90
7388;DHT22;3735;50.136;11.062;2022-09-17T16:11:15;12.40;99.90
7388;DHT22;3735;50.136;11.062;2022-09-17T16:13:41;12.20;99.90
7388;DHT22;3735;50.136;11.062;2022-09-17T16:16:19;11.90;99.90
7388;DHT22;3735;50.136;11.062;2022-09-17T16:18:47;11.70;99.90
7388;DHT22;3735;50.136;11.062;2022-09-17T16:21:16;11.40;99.90
7388;DHT22;3735;50.136;11.062;2022-09-17T16:23:43;11.10;99.90
7388;DHT22;3735;50.136;11.062;2022-09-17T16:26:14;10.60;99.90
7388;DHT22;3735;50.136;11.062;2022-09-17T16:28:44;10.30;99.90
7388;DHT22;3735;50.136;11.062;2022-09-17T16:31:12;10.30;99.90
7388;DHT22;3735;50.136;11.062;2022-09-17T16:33:39;10.70;99.90
7388;DHT22;3735;50.136;11.062;2022-09-17T16:36:05;10.90;99.90
7388;DHT22;3735;50.136;11.062;2022-09-17T16:38:31;10.90;99.90
7388;DHT22;3735;50.136;11.062;2022-09-17T16:40:57;11.00;99.90
7388;DHT22;3735;50.136;11.062;2022-09-17T16:43:22;11.10;99.90
7388;DHT22;3735;50.136;11.062;2022-09-17T16:46:03;11.00;99.90
7388;DHT22;3735;50.136;11.062;2022-09-17T16:48:31;10.50;99.90
7388;DHT22;3735;50.136;11.062;2022-09-17T16:50:58;10.20;99.90
7388;DHT22;3735;50.136;11.062;2022-09-17T16:53:27;9.90;99.90
7388;DHT22;3735;50.136;11.062;2022-09-17T16:55:53;9.80;99.90
7388;DHT22;3735;50.136;11.062;2022-09-17T16:58:19;9.60;99.90
7388;DHT22;3735;50.136;11.062;2022-09-17T17:00:45;9.50;99.90
7388;DHT22;3735;50.136;11.062;2022-09-17T17:03:11;9.50;99.90
7388;DHT22;3735;50.136;11.062;2022-09-17T17:05:38;9.40;99.90
7388;DHT22;3735;50.136;11.062;2022-09-17T17:08:05;9.40;99.90
7388;DHT22;3735;50.136;11.062;2022-09-17T17:10:32;9.40;99.90
7388;DHT22;3735;50.136;11.062;2022-09-17T17:12:58;9.40;99.90
7388;DHT22;3735;50.136;11.062;2022-09-17T17:15:24;9.30;99.90
7388;DHT22;3735;50.136;11.062;2022-09-17T17:17:50;9.30;99.90
7388;DHT22;3735;50.136;11.062;2022-09-17T17:20:16;9.20;99.90
7388;DHT22;3735;50.136;11.062;2022-09-17T17:22:43;9.10;99.90
7388;DHT22;3735;50.136;11.062;2022-09-17T17:25:11;9.10;99.90
7388;DHT22;3735;50.136;11.062;2022-09-17T17:27:39;9.00;99.90
7388;DHT22;3735;50.136;11.062;2022-09-17T17:30:07;8.90;99.90
7388;DHT22;3735;50.136;11.062;2022-09-17T17:32:35;8.90;99.90
7388;DHT22;3735;50.136;11.062;2022-09-17T17:35:02;9.00;99.90
7388;DHT22;3735;50.136;11.062;2022-09-17T17:37:29;9.00;99.90
7388;DHT22;3735;50.136;11.062;2022-09-17T17:39:54;9.10;99.90
7388;DHT22;3735;50.136;11.062;2022-09-17T17:42:22;9.10;99.90
7388;DHT22;3735;50.136;11.062;2022-09-17T17:44:47;9.10;99.90
7388;DHT22;3735;50.136;11.062;2022-09-17T17:47:13;9.10;99.90
7388;DHT22;3735;50.136;11.062;2022-09-17T17:49:39;9.10;99.90
7388;DHT22;3735;50.136;11.062;2022-09-17T17:52:05;9.20;99.90
7388;DHT22;3735;50.136;11.062;2022-09-17T17:54:31;9.10;99.90
7388;DHT22;3735;50.136;11.062;2022-09-17T17:56:57;9.30;99.90
7388;DHT22;3735;50.136;11.062;2022-09-17T17:59:23;9.40;99.90
7388;DHT22;3735;50.136;11.062;2022-09-17T18:01:49;9.50;99.90
7388;DHT22;3735;50.136;11.062;2022-09-17T18:04:14;9.60;99.90
7388;DHT22;3735;50.136;11.062;2022-09-17T18:06:40;9.70;99.90
7388;DHT22;3735;50.136;11.062;2022-09-17T18:09:07;9.80;99.90
7388;DHT22;3735;50.136;11.062;2022-09-17T18:11:33;9.90;99.90
7388;DHT22;3735;50.136;11.062;2022-09-17T18:14:00;10.00;99.90
7388;DHT22;3735;50.136;11.062;2022-09-17T18:16:27;10.00;99.90
7388;DHT22;3735;50.136;11.062;2022-09-17T18:18:55;9.90;99.90
7388;DHT22;3735;50.136;11.062;2022-09-17T18:21:23;9.80;99.90
7388;DHT22;3735;50.136;11.062;2022-09-17T18:23:50;9.80;99.90
7388;DHT22;3735;50.136;11.062;2022-09-17T18:26:22;9.80;99.90
7388;DHT22;3735;50.136;11.062;2022-09-17T18:28:50;9.70;99.90
7388;DHT22;3735;50.136;11.062;2022-09-17T18:31:29;9.70;99.90
7388;DHT22;3735;50.136;11.062;2022-09-17T18:34:14;9.60;99.90
7388;DHT22;3735;50.136;11.062;2022-09-17T18:36:41;9.60;99.90
7388;DHT22;3735;50.136;11.062;2022-09-17T18:39:11;9.50;99.90
7388;DHT22;3735;50.136;11.062;2022-09-17T18:41:39;9.40;99.90
7388;DHT22;3735;50.136;11.062;2022-09-17T18:44:06;9.30;99.90
7388;DHT22;3735;50.136;11.062;2022-09-17T18:46:33;9.30;99.90
7388;DHT22;3735;50.136;11.062;2022-09-17T18:48:59;9.20;99.90
7388;DHT22;3735;50.136;11.062;2022-09-17T18:51:26;9.10;99.90
7388;DHT22;3735;50.136;11.062;2022-09-17T18:53:53;9.00;99.90
7388;DHT22;3735;50.136;11.062;2022-09-17T18:56:24;8.90;99.90
7388;DHT22;3735;50.136;11.062;2022-09-17T18:58:54;8.90;99.90
7388;DHT22;3735;50.136;11.062;2022-09-17T19:01:23;8.80;99.90
7388;DHT22;3735;50.136;11.062;2022-09-17T19:03:53;8.70;99.90
7388;DHT22;3735;50.136;11.062;2022-09-17T19:06:19;8.60;99.90
7388;DHT22;3735;50.136;11.062;2022-09-17T19:08:45;8.60;99.90
7388;DHT22;3735;50.136;11.062;2022-09-17T19:11:11;8.80;99.90
7388;DHT22;3735;50.136;11.062;2022-09-17T19:13:43;8.90;99.90
7388;DHT22;3735;50.136;11.062;2022-09-17T19:16:11;8.90;99.90
7388;DHT22;3735;50.136;11.062;2022-09-17T19:18:39;8.80;99.90
7388;DHT22;3735;50.136;11.062;2022-09-17T19:21:16;8.80;99.90
7388;DHT22;3735;50.136;11.062;2022-09-17T19:23:47;8.70;99.90
7388;DHT22;3735;50.136;11.062;2022-09-17T19:26:17;8.70;99.90
7388;DHT22;3735;50.136;11.062;2022-09-17T19:28:48;8.60;99.90
7388;DHT22;3735;50.136;11.062;2022-09-17T19:31:16;8.60;99.90
7388;DHT22;3735;50.136;11.062;2022-09-17T19:33:43;8.50;99.90
7388;DHT22;3735;50.136;11.062;2022-09-17T19:36:11;8.50;99.90
7388;DHT22;3735;50.136;11.062;2022-09-17T19:38:38;8.50;99.90
7388;DHT22;3735;50.136;11.062;2022-09-17T19:41:06;8.50;99.90
7388;DHT22;3735;50.136;11.062;2022-09-17T19:43:37;8.50;99.90
7388;DHT22;3735;50.136;11.062;2022-09-17T19:46:12;8.50;99.90
7388;DHT22;3735;50.136;11.062;2022-09-17T19:48:44;8.50;99.90
7388;DHT22;3735;50.136;11.062;2022-09-17T19:51:15;8.40;99.90
7388;DHT22;3735;50.136;11.062;2022-09-17T19:53:42;8.40;99.90
7388;DHT22;3735;50.136;11.062;2022-09-17T19:56:14;8.40;99.90
7388;DHT22;3735;50.136;11.062;2022-09-17T19:58:42;8.30;99.90
7388;DHT22;3735;50.136;11.062;2022-09-17T20:01:09;8.30;99.90
7388;DHT22;3735;50.136;11.062;2022-09-17T20:03:37;8.30;99.90